sensor_id;sensor_type;location;lat;lon;timestamp;P1;durP1;ratioP1;P2;durP2;ratioP2
62435;SDS011;48480;50.252;18.848;2023-05-20T00:01:21;23.40;;;14.90;;
62435;SDS011;48480;50.252;18.848;2023-05-20T00:04:05;22.40;;;16.00;;
62435;SDS011;48480;50.252;18.848;2023-05-20T00:06:49;20.80;;;15.10;;
62435;SDS011;48480;50.252;18.848;2023-05-20T00:09:34;24.60;;;16.00;;
62435;SDS011;48480;50.252;18.848;2023-05-20T00:12:18;19.20;;;14.50;;
62435;SDS011;48480;50.252;18.848;2023-05-20T00:15:02;23.00;;;15.20;;
62435;SDS011;48480;50.252;18.848;2023-05-20T00:17:46;24.20;;;16.40;;
62435;SDS011;48480;50.252;18.848;2023-05-20T00:20:31;23.30;;;16.30;;
62435;SDS011;48480;50.252;18.848;2023-05-20T00:23:15;24.60;;;16.90;;
62435;SDS011;48480;50.252;18.848;2023-05-20T00:25:59;24.90;;;16.50;;
62435;SDS011;48480;50.252;18.848;2023-05-20T00:28:43;26.10;;;17.60;;
62435;SDS011;48480;50.252;18.848;2023-05-20T00:31:27;29.70;;;19.90;;
62435;SDS011;48480;50.252;18.848;2023-05-20T00:34:11;26.70;;;15.80;;
62435;SDS011;48480;50.252;18.848;2023-05-20T00:36:55;25.00;;;15.40;;
62435;SDS011;48480;50.252;18.848;2023-05-20T00:39:39;22.90;;;16.40;;
62435;SDS011;48480;50.252;18.848;2023-05-20T00:42:27;27.50;;;18.30;;
62435;SDS011;48480;50.252;18.848;2023-05-20T00:45:11;27.30;;;18.00;;
62435;SDS011;48480;50.252;18.848;2023-05-20T00:47:55;23.00;;;15.50;;
62435;SDS011;48480;50.252;18.848;2023-05-20T00:50:42;25.80;;;17.00;;
62435;SDS011;48480;50.252;18.848;2023-05-20T00:53:26;25.70;;;16.80;;
62435;SDS011;48480;50.252;18.848;2023-05-20T00:56:10;26.10;;;18.30;;
62435;SDS011;48480;50.252;18.848;2023-05-20T00:58:55;27.70;;;17.60;;
62435;SDS011;48480;50.252;18.848;2023-05-20T01:01:39;26.70;;;17.10;;
62435;SDS011;48480;50.252;18.848;2023-05-20T01:04:24;23.60;;;15.30;;
62435;SDS011;48480;50.252;18.848;2023-05-20T01:07:08;28.40;;;18.20;;
62435;SDS011;48480;50.252;18.848;2023-05-20T01:09:52;22.40;;;16.80;;
62435;SDS011;48480;50.252;18.848;2023-05-20T01:12:42;24.90;;;16.90;;
62435;SDS011;48480;50.252;18.848;2023-05-20T01:15:30;21.30;;;16.90;;
62435;SDS011;48480;50.252;18.848;2023-05-20T01:18:14;22.80;;;16.00;;
62435;SDS011;48480;50.252;18.848;2023-05-20T01:21:01;25.00;;;16.40;;
62435;SDS011;48480;50.252;18.848;2023-05-20T01:23:46;24.30;;;16.60;;
62435;SDS011;48480;50.252;18.848;2023-05-20T01:26:31;25.10;;;16.80;;
62435;SDS011;48480;50.252;18.848;2023-05-20T01:29:16;25.20;;;17.90;;
62435;SDS011;48480;50.252;18.848;2023-05-20T01:32:01;27.20;;;16.40;;
62435;SDS011;48480;50.252;18.848;2023-05-20T01:34:49;25.90;;;18.40;;
62435;SDS011;48480;50.252;18.848;2023-05-20T01:37:35;25.50;;;17.00;;
62435;SDS011;48480;50.252;18.848;2023-05-20T01:40:22;25.00;;;17.10;;
62435;SDS011;48480;50.252;18.848;2023-05-20T01:43:06;26.50;;;17.50;;
62435;SDS011;48480;50.252;18.848;2023-05-20T01:45:51;26.00;;;16.80;;
62435;SDS011;48480;50.252;18.848;2023-05-20T01:48:35;24.80;;;17.70;;
62435;SDS011;48480;50.252;18.848;2023-05-20T01:51:20;29.60;;;19.20;;
62435;SDS011;48480;50.252;18.848;2023-05-20T01:54:05;24.60;;;16.80;;
62435;SDS011;48480;50.252;18.848;2023-05-20T01:56:49;24.00;;;16.80;;
62435;SDS011;48480;50.252;18.848;2023-05-20T01:59:33;25.60;;;17.50;;
62435;SDS011;48480;50.252;18.848;2023-05-20T02:02:17;27.80;;;19.20;;
62435;SDS011;48480;50.252;18.848;2023-05-20T02:05:01;25.60;;;16.60;;
62435;SDS011;48480;50.252;18.848;2023-05-20T02:07:45;24.10;;;16.30;;
62435;SDS011;48480;50.252;18.848;2023-05-20T02:10:29;26.60;;;18.20;;
62435;SDS011;48480;50.252;18.848;2023-05-20T02:13:13;26.20;;;17.60;;
62435;SDS011;48480;50.252;18.848;2023-05-20T02:15:57;25.60;;;17.40;;
62435;SDS011;48480;50.252;18.848;2023-05-20T02:18:41;28.40;;;16.80;;
62435;SDS011;48480;50.252;18.848;2023-05-20T02:21:25;28.20;;;17.50;;
62435;SDS011;48480;50.252;18.848;2023-05-20T02:24:09;24.20;;;17.40;;
62435;SDS011;48480;50.252;18.848;2023-05-20T02:26:53;25.80;;;15.10;;
62435;SDS011;48480;50.252;18.848;2023-05-20T02:29:38;24.00;;;16.70;;
62435;SDS011;48480;50.252;18.848;2023-05-20T02:32:22;26.00;;;17.30;;
62435;SDS011;48480;50.252;18.848;2023-05-20T02:35:10;25.10;;;16.40;;
62435;SDS011;48480;50.252;18.848;2023-05-20T02:37:54;23.40;;;16.60;;
62435;SDS011;48480;50.252;18.848;2023-05-20T02:40:38;23.80;;;16.90;;
62435;SDS011;48480;50.252;18.848;2023-05-20T02:43:22;23.50;;;16.70;;
62435;SDS011;48480;50.252;18.848;2023-05-20T02:46:06;22.70;;;16.20;;
62435;SDS011;48480;50.252;18.848;2023-05-20T02:48:50;26.20;;;17.70;;
62435;SDS011;48480;50.252;18.848;2023-05-20T02:51:35;26.00;;;18.50;;
62435;SDS011;48480;50.252;18.848;2023-05-20T02:54:19;23.80;;;16.70;;
62435;SDS011;48480;50.252;18.848;2023-05-20T02:57:03;28.00;;;18.00;;
62435;SDS011;48480;50.252;18.848;2023-05-20T02:59:48;26.90;;;17.60;;
62435;SDS011;48480;50.252;18.848;2023-05-20T03:02:32;30.20;;;19.80;;
62435;SDS011;48480;50.252;18.848;2023-05-20T03:05:17;27.60;;;18.10;;
62435;SDS011;48480;50.252;18.848;2023-05-20T03:08:00;26.90;;;18.10;;
62435;SDS011;48480;50.252;18.848;2023-05-20T03:10:45;24.90;;;15.20;;
62435;SDS011;48480;50.252;18.848;2023-05-20T03:13:28;24.70;;;15.90;;
62435;SDS011;48480;50.252;18.848;2023-05-20T03:16:12;22.90;;;15.70;;
62435;SDS011;48480;50.252;18.848;2023-05-20T03:18:56;20.90;;;14.70;;
62435;SDS011;48480;50.252;18.848;2023-05-20T03:21:40;20.70;;;13.20;;
62435;SDS011;48480;50.252;18.848;2023-05-20T03:24:26;21.00;;;13.20;;
62435;SDS011;48480;50.252;18.848;2023-05-20T03:27:11;18.50;;;12.60;;
62435;SDS011;48480;50.252;18.848;2023-05-20T03:29:55;17.70;;;11.40;;
62435;SDS011;48480;50.252;18.848;2023-05-20T03:32:39;19.50;;;12.40;;
62435;SDS011;48480;50.252;18.848;2023-05-20T03:35:22;17.20;;;11.60;;
62435;SDS011;48480;50.252;18.848;2023-05-20T03:38:07;17.80;;;12.20;;
62435;SDS011;48480;50.252;18.848;2023-05-20T03:40:51;14.30;;;10.40;;
62435;SDS011;48480;50.252;18.848;2023-05-20T03:43:35;16.50;;;10.70;;
62435;SDS011;48480;50.252;18.848;2023-05-20T03:46:19;15.50;;;10.50;;
62435;SDS011;48480;50.252;18.848;2023-05-20T03:49:03;14.70;;;10.80;;
62435;SDS011;48480;50.252;18.848;2023-05-20T03:51:48;16.30;;;11.50;;
62435;SDS011;48480;50.252;18.848;2023-05-20T03:54:32;14.60;;;10.70;;
62435;SDS011;48480;50.252;18.848;2023-05-20T03:57:18;16.50;;;12.20;;
62435;SDS011;48480;50.252;18.848;2023-05-20T04:00:02;14.50;;;10.90;;
62435;SDS011;48480;50.252;18.848;2023-05-20T04:02:52;18.40;;;11.90;;
62435;SDS011;48480;50.252;18.848;2023-05-20T04:05:38;14.50;;;10.50;;
62435;SDS011;48480;50.252;18.848;2023-05-20T04:08:21;14.50;;;10.60;;
62435;SDS011;48480;50.252;18.848;2023-05-20T04:11:08;13.10;;;8.70;;
62435;SDS011;48480;50.252;18.848;2023-05-20T04:13:52;16.10;;;11.00;;
62435;SDS011;48480;50.252;18.848;2023-05-20T04:16:37;13.60;;;9.80;;
62435;SDS011;48480;50.252;18.848;2023-05-20T04:19:21;16.00;;;11.10;;
62435;SDS011;48480;50.252;18.848;2023-05-20T04:22:06;12.80;;;10.50;;
62435;SDS011;48480;50.252;18.848;2023-05-20T04:24:50;11.60;;;9.30;;
62435;SDS011;48480;50.252;18.848;2023-05-20T04:27:34;13.10;;;9.40;;
62435;SDS011;48480;50.252;18.848;2023-05-20T04:30:20;10.30;;;8.40;;
62435;SDS011;48480;50.252;18.848;2023-05-20T04:33:04;10.90;;;7.70;;
62435;SDS011;48480;50.252;18.848;2023-05-20T04:35:48;8.30;;;5.70;;
62435;SDS011;48480;50.252;18.848;2023-05-20T04:38:32;8.90;;;7.90;;
62435;SDS011;48480;50.252;18.848;2023-05-20T04:41:16;9.40;;;7.40;;
62435;SDS011;48480;50.252;18.848;2023-05-20T04:44:01;11.40;;;8.20;;
62435;SDS011;48480;50.252;18.848;2023-05-20T04:46:46;7.80;;;5.60;;
62435;SDS011;48480;50.252;18.848;2023-05-20T04:49:31;10.90;;;7.80;;
62435;SDS011;48480;50.252;18.848;2023-05-20T04:52:15;10.60;;;8.20;;
62435;SDS011;48480;50.252;18.848;2023-05-20T04:54:59;9.60;;;8.00;;
62435;SDS011;48480;50.252;18.848;2023-05-20T04:57:44;10.40;;;8.20;;
62435;SDS011;48480;50.252;18.848;2023-05-20T05:00:28;10.30;;;6.80;;
62435;SDS011;48480;50.252;18.848;2023-05-20T05:03:12;10.80;;;7.80;;
62435;SDS011;48480;50.252;18.848;2023-05-20T05:05:59;12.00;;;8.20;;
62435;SDS011;48480;50.252;18.848;2023-05-20T05:08:43;11.60;;;8.40;;
62435;SDS011;48480;50.252;18.848;2023-05-20T05:11:28;10.80;;;8.20;;
62435;SDS011;48480;50.252;18.848;2023-05-20T05:14:12;8.90;;;6.50;;
62435;SDS011;48480;50.252;18.848;2023-05-20T05:16:56;11.70;;;9.20;;
62435;SDS011;48480;50.252;18.848;2023-05-20T05:19:40;13.50;;;9.30;;
62435;SDS011;48480;50.252;18.848;2023-05-20T05:22:24;10.80;;;8.90;;
62435;SDS011;48480;50.252;18.848;2023-05-20T05:25:08;23.70;;;18.80;;
62435;SDS011;48480;50.252;18.848;2023-05-20T05:27:53;22.40;;;16.50;;
62435;SDS011;48480;50.252;18.848;2023-05-20T05:30:37;18.30;;;15.00;;
62435;SDS011;48480;50.252;18.848;2023-05-20T05:33:21;33.40;;;26.90;;
62435;SDS011;48480;50.252;18.848;2023-05-20T05:36:06;17.40;;;13.90;;
62435;SDS011;48480;50.252;18.848;2023-05-20T05:38:50;13.10;;;10.80;;
62435;SDS011;48480;50.252;18.848;2023-05-20T05:41:34;13.20;;;9.60;;
62435;SDS011;48480;50.252;18.848;2023-05-20T05:44:19;12.50;;;9.60;;
62435;SDS011;48480;50.252;18.848;2023-05-20T05:47:03;12.40;;;9.50;;
62435;SDS011;48480;50.252;18.848;2023-05-20T05:49:48;12.40;;;9.70;;
62435;SDS011;48480;50.252;18.848;2023-05-20T05:52:32;13.40;;;9.10;;
62435;SDS011;48480;50.252;18.848;2023-05-20T05:55:16;14.90;;;9.60;;
62435;SDS011;48480;50.252;18.848;2023-05-20T05:58:00;11.80;;;8.90;;
62435;SDS011;48480;50.252;18.848;2023-05-20T06:00:45;12.00;;;9.00;;
62435;SDS011;48480;50.252;18.848;2023-05-20T06:03:29;11.00;;;8.80;;
62435;SDS011;48480;50.252;18.848;2023-05-20T06:06:13;12.60;;;9.50;;
62435;SDS011;48480;50.252;18.848;2023-05-20T06:08:57;12.40;;;9.40;;
62435;SDS011;48480;50.252;18.848;2023-05-20T06:11:41;13.80;;;10.00;;
62435;SDS011;48480;50.252;18.848;2023-05-20T06:14:27;13.80;;;10.40;;
62435;SDS011;48480;50.252;18.848;2023-05-20T06:17:11;10.20;;;8.80;;
62435;SDS011;48480;50.252;18.848;2023-05-20T06:19:55;12.20;;;9.50;;
62435;SDS011;48480;50.252;18.848;2023-05-20T06:22:39;11.50;;;9.30;;
62435;SDS011;48480;50.252;18.848;2023-05-20T06:25:23;12.80;;;8.80;;
62435;SDS011;48480;50.252;18.848;2023-05-20T06:28:08;12.70;;;9.10;;
62435;SDS011;48480;50.252;18.848;2023-05-20T06:30:53;9.00;;;7.60;;
62435;SDS011;48480;50.252;18.848;2023-05-20T06:33:38;12.70;;;9.90;;
62435;SDS011;48480;50.252;18.848;2023-05-20T06:36:22;10.50;;;7.70;;
62435;SDS011;48480;50.252;18.848;2023-05-20T06:39:06;9.60;;;7.90;;
62435;SDS011;48480;50.252;18.848;2023-05-20T06:41:54;12.40;;;8.40;;
62435;SDS011;48480;50.252;18.848;2023-05-20T06:44:38;9.90;;;8.00;;
62435;SDS011;48480;50.252;18.848;2023-05-20T06:47:22;11.50;;;8.00;;
62435;SDS011;48480;50.252;18.848;2023-05-20T06:50:06;9.40;;;7.50;;
62435;SDS011;48480;50.252;18.848;2023-05-20T06:52:51;11.60;;;8.20;;
62435;SDS011;48480;50.252;18.848;2023-05-20T06:55:36;9.80;;;7.90;;
62435;SDS011;48480;50.252;18.848;2023-05-20T06:58:22;10.10;;;8.00;;
62435;SDS011;48480;50.252;18.848;2023-05-20T07:01:06;11.30;;;8.30;;
62435;SDS011;48480;50.252;18.848;2023-05-20T07:03:49;11.20;;;8.50;;
62435;SDS011;48480;50.252;18.848;2023-05-20T07:06:33;11.10;;;8.50;;
62435;SDS011;48480;50.252;18.848;2023-05-20T07:09:17;10.80;;;9.30;;
62435;SDS011;48480;50.252;18.848;2023-05-20T07:12:02;12.00;;;8.40;;
62435;SDS011;48480;50.252;18.848;2023-05-20T07:14:46;12.30;;;9.40;;
62435;SDS011;48480;50.252;18.848;2023-05-20T07:17:31;11.60;;;8.60;;
62435;SDS011;48480;50.252;18.848;2023-05-20T07:20:15;12.00;;;9.20;;
62435;SDS011;48480;50.252;18.848;2023-05-20T07:23:00;11.70;;;8.80;;
62435;SDS011;48480;50.252;18.848;2023-05-20T07:25:46;10.00;;;8.30;;
62435;SDS011;48480;50.252;18.848;2023-05-20T07:28:30;11.20;;;8.90;;
62435;SDS011;48480;50.252;18.848;2023-05-20T07:31:14;13.50;;;9.60;;
62435;SDS011;48480;50.252;18.848;2023-05-20T07:33:59;11.20;;;9.10;;
62435;SDS011;48480;50.252;18.848;2023-05-20T07:36:43;13.70;;;9.80;;
62435;SDS011;48480;50.252;18.848;2023-05-20T07:39:27;11.20;;;8.90;;
62435;SDS011;48480;50.252;18.848;2023-05-20T07:42:12;9.80;;;8.60;;
62435;SDS011;48480;50.252;18.848;2023-05-20T07:44:56;12.90;;;9.40;;
62435;SDS011;48480;50.252;18.848;2023-05-20T07:47:40;13.20;;;9.10;;
62435;SDS011;48480;50.252;18.848;2023-05-20T07:50:24;10.20;;;8.60;;
62435;SDS011;48480;50.252;18.848;2023-05-20T07:53:08;12.70;;;9.10;;
62435;SDS011;48480;50.252;18.848;2023-05-20T07:55:52;13.70;;;10.10;;
62435;SDS011;48480;50.252;18.848;2023-05-20T07:58:39;12.30;;;9.60;;
62435;SDS011;48480;50.252;18.848;2023-05-20T08:01:24;12.50;;;8.80;;
62435;SDS011;48480;50.252;18.848;2023-05-20T08:04:09;13.40;;;9.40;;
62435;SDS011;48480;50.252;18.848;2023-05-20T08:06:53;11.70;;;9.10;;
62435;SDS011;48480;50.252;18.848;2023-05-20T08:09:37;11.90;;;9.00;;
62435;SDS011;48480;50.252;18.848;2023-05-20T08:12:21;12.80;;;9.40;;
62435;SDS011;48480;50.252;18.848;2023-05-20T08:15:06;14.70;;;10.00;;
62435;SDS011;48480;50.252;18.848;2023-05-20T08:17:51;14.60;;;10.00;;
62435;SDS011;48480;50.252;18.848;2023-05-20T08:20:35;13.80;;;9.60;;
62435;SDS011;48480;50.252;18.848;2023-05-20T08:23:20;12.20;;;9.70;;
62435;SDS011;48480;50.252;18.848;2023-05-20T08:26:04;12.20;;;10.10;;
62435;SDS011;48480;50.252;18.848;2023-05-20T08:28:47;14.40;;;10.10;;
62435;SDS011;48480;50.252;18.848;2023-05-20T08:31:31;12.60;;;9.20;;
62435;SDS011;48480;50.252;18.848;2023-05-20T08:34:16;12.70;;;10.70;;
62435;SDS011;48480;50.252;18.848;2023-05-20T08:36:59;15.10;;;11.30;;
62435;SDS011;48480;50.252;18.848;2023-05-20T08:39:44;14.30;;;10.40;;
62435;SDS011;48480;50.252;18.848;2023-05-20T08:42:30;13.50;;;10.50;;
62435;SDS011;48480;50.252;18.848;2023-05-20T08:45:16;13.60;;;10.00;;
62435;SDS011;48480;50.252;18.848;2023-05-20T08:48:01;11.60;;;9.20;;
62435;SDS011;48480;50.252;18.848;2023-05-20T08:50:50;13.70;;;10.40;;
62435;SDS011;48480;50.252;18.848;2023-05-20T08:53:35;11.60;;;9.90;;
62435;SDS011;48480;50.252;18.848;2023-05-20T08:56:19;10.80;;;9.30;;
62435;SDS011;48480;50.252;18.848;2023-05-20T08:59:06;10.40;;;9.00;;
62435;SDS011;48480;50.252;18.848;2023-05-20T09:01:51;11.70;;;9.30;;
62435;SDS011;48480;50.252;18.848;2023-05-20T09:04:35;13.30;;;10.10;;
62435;SDS011;48480;50.252;18.848;2023-05-20T09:07:28;14.40;;;11.50;;
62435;SDS011;48480;50.252;18.848;2023-05-20T09:10:13;14.50;;;11.10;;
62435;SDS011;48480;50.252;18.848;2023-05-20T09:12:58;14.00;;;10.90;;
62435;SDS011;48480;50.252;18.848;2023-05-20T09:15:46;12.40;;;10.60;;
62435;SDS011;48480;50.252;18.848;2023-05-20T09:18:30;14.10;;;11.70;;
62435;SDS011;48480;50.252;18.848;2023-05-20T09:21:14;15.10;;;11.40;;
62435;SDS011;48480;50.252;18.848;2023-05-20T09:24:00;14.10;;;11.70;;
62435;SDS011;48480;50.252;18.848;2023-05-20T09:26:45;15.10;;;11.70;;
62435;SDS011;48480;50.252;18.848;2023-05-20T09:29:31;15.30;;;11.90;;
62435;SDS011;48480;50.252;18.848;2023-05-20T09:32:16;14.70;;;11.70;;
62435;SDS011;48480;50.252;18.848;2023-05-20T09:35:03;14.30;;;11.80;;
62435;SDS011;48480;50.252;18.848;2023-05-20T09:37:53;12.90;;;10.40;;
62435;SDS011;48480;50.252;18.848;2023-05-20T09:40:38;13.80;;;11.70;;
62435;SDS011;48480;50.252;18.848;2023-05-20T09:43:26;13.50;;;11.40;;
62435;SDS011;48480;50.252;18.848;2023-05-20T09:46:11;13.20;;;11.80;;
62435;SDS011;48480;50.252;18.848;2023-05-20T09:48:56;13.30;;;11.80;;
62435;SDS011;48480;50.252;18.848;2023-05-20T09:51:41;12.80;;;9.70;;
62435;SDS011;48480;50.252;18.848;2023-05-20T09:54:26;13.60;;;11.70;;
62435;SDS011;48480;50.252;18.848;2023-05-20T09:57:12;13.50;;;10.60;;
62435;SDS011;48480;50.252;18.848;2023-05-20T09:59:56;13.40;;;11.60;;
62435;SDS011;48480;50.252;18.848;2023-05-20T10:02:45;12.40;;;11.10;;
62435;SDS011;48480;50.252;18.848;2023-05-20T10:05:31;14.50;;;11.40;;
62435;SDS011;48480;50.252;18.848;2023-05-20T10:08:27;15.80;;;12.00;;
62435;SDS011;48480;50.252;18.848;2023-05-20T10:20:49;13.70;;;12.20;;
62435;SDS011;48480;50.252;18.848;2023-05-20T10:23:34;14.30;;;12.20;;
62435;SDS011;48480;50.252;18.848;2023-05-20T10:26:18;13.90;;;12.00;;
62435;SDS011;48480;50.252;18.848;2023-05-20T10:29:13;14.50;;;13.10;;
62435;SDS011;48480;50.252;18.848;2023-05-20T10:32:00;18.70;;;12.60;;
62435;SDS011;48480;50.252;18.848;2023-05-20T10:34:46;18.20;;;12.40;;
62435;SDS011;48480;50.252;18.848;2023-05-20T10:37:39;13.60;;;12.10;;
62435;SDS011;48480;50.252;18.848;2023-05-20T10:40:26;14.60;;;11.90;;
62435;SDS011;48480;50.252;18.848;2023-05-20T10:43:11;13.40;;;11.80;;
62435;SDS011;48480;50.252;18.848;2023-05-20T10:45:57;14.90;;;13.00;;
62435;SDS011;48480;50.252;18.848;2023-05-20T10:48:42;14.60;;;13.00;;
62435;SDS011;48480;50.252;18.848;2023-05-20T10:51:27;13.30;;;11.80;;
62435;SDS011;48480;50.252;18.848;2023-05-20T10:54:12;15.40;;;12.30;;
62435;SDS011;48480;50.252;18.848;2023-05-20T10:56:57;14.20;;;12.20;;
62435;SDS011;48480;50.252;18.848;2023-05-20T10:59:41;12.90;;;10.60;;
62435;SDS011;48480;50.252;18.848;2023-05-20T11:02:25;13.70;;;11.70;;
62435;SDS011;48480;50.252;18.848;2023-05-20T11:05:11;13.80;;;12.00;;
62435;SDS011;48480;50.252;18.848;2023-05-20T11:08:03;16.40;;;13.00;;
62435;SDS011;48480;50.252;18.848;2023-05-20T11:10:57;15.50;;;10.90;;
62435;SDS011;48480;50.252;18.848;2023-05-20T11:13:41;15.40;;;12.40;;
62435;SDS011;48480;50.252;18.848;2023-05-20T11:16:26;16.40;;;11.70;;
62435;SDS011;48480;50.252;18.848;2023-05-20T11:19:14;15.40;;;13.20;;
62435;SDS011;48480;50.252;18.848;2023-05-20T11:21:59;16.20;;;13.70;;
62435;SDS011;48480;50.252;18.848;2023-05-20T11:24:43;13.60;;;12.10;;
62435;SDS011;48480;50.252;18.848;2023-05-20T11:27:27;15.00;;;13.40;;
62435;SDS011;48480;50.252;18.848;2023-05-20T11:30:12;16.00;;;13.50;;
62435;SDS011;48480;50.252;18.848;2023-05-20T11:33:01;16.50;;;14.40;;
62435;SDS011;48480;50.252;18.848;2023-05-20T11:35:47;14.90;;;12.70;;
62435;SDS011;48480;50.252;18.848;2023-05-20T11:38:33;15.20;;;13.30;;
62435;SDS011;48480;50.252;18.848;2023-05-20T11:41:21;16.30;;;14.50;;
62435;SDS011;48480;50.252;18.848;2023-05-20T11:44:10;18.50;;;15.20;;
62435;SDS011;48480;50.252;18.848;2023-05-20T11:46:59;15.70;;;14.00;;
62435;SDS011;48480;50.252;18.848;2023-05-20T11:49:46;19.50;;;14.50;;
62435;SDS011;48480;50.252;18.848;2023-05-20T11:52:32;17.40;;;15.10;;
62435;SDS011;48480;50.252;18.848;2023-05-20T11:55:16;19.80;;;15.60;;
62435;SDS011;48480;50.252;18.848;2023-05-20T11:58:00;18.70;;;16.10;;
62435;SDS011;48480;50.252;18.848;2023-05-20T12:00:45;18.20;;;15.60;;
62435;SDS011;48480;50.252;18.848;2023-05-20T12:03:29;18.20;;;15.30;;
62435;SDS011;48480;50.252;18.848;2023-05-20T12:06:14;22.20;;;15.40;;
62435;SDS011;48480;50.252;18.848;2023-05-20T12:09:03;18.30;;;16.30;;
62435;SDS011;48480;50.252;18.848;2023-05-20T12:11:51;18.50;;;13.80;;
62435;SDS011;48480;50.252;18.848;2023-05-20T12:14:35;18.30;;;14.30;;
62435;SDS011;48480;50.252;18.848;2023-05-20T12:17:19;18.60;;;15.10;;
62435;SDS011;48480;50.252;18.848;2023-05-20T12:20:04;17.70;;;15.80;;
62435;SDS011;48480;50.252;18.848;2023-05-20T12:22:49;20.00;;;15.10;;
62435;SDS011;48480;50.252;18.848;2023-05-20T12:25:34;19.00;;;15.20;;
62435;SDS011;48480;50.252;18.848;2023-05-20T12:28:18;15.60;;;12.80;;
62435;SDS011;48480;50.252;18.848;2023-05-20T12:31:02;20.40;;;15.00;;
62435;SDS011;48480;50.252;18.848;2023-05-20T12:33:46;18.90;;;14.50;;
62435;SDS011;48480;50.252;18.848;2023-05-20T12:36:30;19.10;;;14.90;;
62435;SDS011;48480;50.252;18.848;2023-05-20T12:39:14;18.40;;;15.90;;
62435;SDS011;48480;50.252;18.848;2023-05-20T12:42:01;19.10;;;15.10;;
62435;SDS011;48480;50.252;18.848;2023-05-20T12:44:45;19.80;;;15.80;;
62435;SDS011;48480;50.252;18.848;2023-05-20T12:47:30;19.70;;;14.50;;
62435;SDS011;48480;50.252;18.848;2023-05-20T12:50:15;14.70;;;13.10;;
62435;SDS011;48480;50.252;18.848;2023-05-20T12:52:59;20.10;;;15.30;;
62435;SDS011;48480;50.252;18.848;2023-05-20T12:55:43;18.10;;;14.50;;
62435;SDS011;48480;50.252;18.848;2023-05-20T12:58:27;18.70;;;14.20;;
62435;SDS011;48480;50.252;18.848;2023-05-20T13:01:11;18.70;;;14.90;;
62435;SDS011;48480;50.252;18.848;2023-05-20T13:03:55;20.00;;;14.20;;
62435;SDS011;48480;50.252;18.848;2023-05-20T13:06:39;18.00;;;14.50;;
62435;SDS011;48480;50.252;18.848;2023-05-20T13:09:24;17.00;;;14.00;;
62435;SDS011;48480;50.252;18.848;2023-05-20T13:12:08;15.00;;;13.20;;
62435;SDS011;48480;50.252;18.848;2023-05-20T13:14:52;16.10;;;13.40;;
62435;SDS011;48480;50.252;18.848;2023-05-20T13:17:36;18.70;;;13.30;;
62435;SDS011;48480;50.252;18.848;2023-05-20T13:20:22;16.20;;;13.60;;
62435;SDS011;48480;50.252;18.848;2023-05-20T13:23:06;17.20;;;13.20;;
62435;SDS011;48480;50.252;18.848;2023-05-20T13:25:51;16.30;;;13.90;;
62435;SDS011;48480;50.252;18.848;2023-05-20T13:28:36;15.40;;;13.00;;
62435;SDS011;48480;50.252;18.848;2023-05-20T13:31:20;18.70;;;13.70;;
62435;SDS011;48480;50.252;18.848;2023-05-20T13:34:05;16.30;;;13.80;;
62435;SDS011;48480;50.252;18.848;2023-05-20T13:36:49;19.30;;;14.70;;
62435;SDS011;48480;50.252;18.848;2023-05-20T13:39:33;18.20;;;13.80;;
62435;SDS011;48480;50.252;18.848;2023-05-20T13:42:18;13.60;;;12.00;;
62435;SDS011;48480;50.252;18.848;2023-05-20T13:45:03;15.90;;;12.40;;
62435;SDS011;48480;50.252;18.848;2023-05-20T13:47:47;14.90;;;13.30;;
62435;SDS011;48480;50.252;18.848;2023-05-20T13:50:31;18.40;;;14.50;;
62435;SDS011;48480;50.252;18.848;2023-05-20T13:53:15;18.00;;;13.80;;
62435;SDS011;48480;50.252;18.848;2023-05-20T13:55:59;18.40;;;13.50;;
62435;SDS011;48480;50.252;18.848;2023-05-20T13:58:44;16.20;;;12.20;;
62435;SDS011;48480;50.252;18.848;2023-05-20T14:01:31;14.80;;;13.10;;
62435;SDS011;48480;50.252;18.848;2023-05-20T14:04:16;15.60;;;12.20;;
62435;SDS011;48480;50.252;18.848;2023-05-20T14:07:00;17.20;;;12.00;;
62435;SDS011;48480;50.252;18.848;2023-05-20T14:09:44;14.10;;;11.70;;
62435;SDS011;48480;50.252;18.848;2023-05-20T14:12:28;15.10;;;12.30;;
62435;SDS011;48480;50.252;18.848;2023-05-20T14:15:12;14.30;;;12.80;;
62435;SDS011;48480;50.252;18.848;2023-05-20T14:17:57;17.90;;;13.40;;
62435;SDS011;48480;50.252;18.848;2023-05-20T14:20:41;14.60;;;12.90;;
62435;SDS011;48480;50.252;18.848;2023-05-20T14:23:26;15.20;;;11.80;;
62435;SDS011;48480;50.252;18.848;2023-05-20T14:26:10;14.90;;;11.80;;
62435;SDS011;48480;50.252;18.848;2023-05-20T14:28:54;14.10;;;12.30;;
62435;SDS011;48480;50.252;18.848;2023-05-20T14:31:37;15.80;;;12.40;;
62435;SDS011;48480;50.252;18.848;2023-05-20T14:34:22;13.50;;;11.40;;
62435;SDS011;48480;50.252;18.848;2023-05-20T14:37:06;15.10;;;12.40;;
62435;SDS011;48480;50.252;18.848;2023-05-20T14:39:53;15.50;;;12.20;;
62435;SDS011;48480;50.252;18.848;2023-05-20T14:42:37;15.00;;;12.50;;
62435;SDS011;48480;50.252;18.848;2023-05-20T14:45:21;13.90;;;11.40;;
62435;SDS011;48480;50.252;18.848;2023-05-20T14:48:05;13.90;;;11.30;;
62435;SDS011;48480;50.252;18.848;2023-05-20T14:50:49;13.40;;;10.40;;
62435;SDS011;48480;50.252;18.848;2023-05-20T14:53:33;13.70;;;11.30;;
62435;SDS011;48480;50.252;18.848;2023-05-20T14:56:17;13.00;;;11.30;;
62435;SDS011;48480;50.252;18.848;2023-05-20T14:59:01;13.20;;;11.50;;
62435;SDS011;48480;50.252;18.848;2023-05-20T15:01:45;13.90;;;11.20;;
62435;SDS011;48480;50.252;18.848;2023-05-20T15:04:29;16.70;;;11.60;;
62435;SDS011;48480;50.252;18.848;2023-05-20T15:07:14;14.00;;;11.50;;
62435;SDS011;48480;50.252;18.848;2023-05-20T15:09:59;13.20;;;11.40;;
62435;SDS011;48480;50.252;18.848;2023-05-20T15:12:43;12.80;;;10.50;;
62435;SDS011;48480;50.252;18.848;2023-05-20T15:15:28;15.60;;;11.30;;
62435;SDS011;48480;50.252;18.848;2023-05-20T15:18:15;12.40;;;10.50;;
62435;SDS011;48480;50.252;18.848;2023-05-20T15:21:00;12.80;;;10.70;;
62435;SDS011;48480;50.252;18.848;2023-05-20T15:23:44;13.90;;;11.10;;
62435;SDS011;48480;50.252;18.848;2023-05-20T15:26:29;12.20;;;9.90;;
62435;SDS011;48480;50.252;18.848;2023-05-20T15:29:14;11.20;;;10.00;;
62435;SDS011;48480;50.252;18.848;2023-05-20T15:31:58;11.90;;;9.70;;
62435;SDS011;48480;50.252;18.848;2023-05-20T15:34:43;11.00;;;9.20;;
62435;SDS011;48480;50.252;18.848;2023-05-20T15:37:27;13.00;;;9.80;;
62435;SDS011;48480;50.252;18.848;2023-05-20T15:40:11;13.10;;;9.70;;
62435;SDS011;48480;50.252;18.848;2023-05-20T15:42:55;11.60;;;8.70;;
62435;SDS011;48480;50.252;18.848;2023-05-20T15:45:39;10.30;;;8.90;;
62435;SDS011;48480;50.252;18.848;2023-05-20T15:48:24;11.20;;;8.30;;
62435;SDS011;48480;50.252;18.848;2023-05-20T15:51:08;12.40;;;9.80;;
62435;SDS011;48480;50.252;18.848;2023-05-20T15:53:52;12.70;;;10.00;;
62435;SDS011;48480;50.252;18.848;2023-05-20T15:56:36;13.10;;;9.90;;
62435;SDS011;48480;50.252;18.848;2023-05-20T15:59:20;11.00;;;9.80;;
62435;SDS011;48480;50.252;18.848;2023-05-20T16:02:04;13.10;;;10.20;;
62435;SDS011;48480;50.252;18.848;2023-05-20T16:04:49;10.40;;;9.20;;